Terminal Aerodrome Forecast
Issued by NWS

Home | Current Version | Previous Version | Text Only | Print | Product List | Glossary On
Versions: 1 2 3 4 5 6 7 8 9 10 11 12 13 14 15 16 17 18 19 20 21
000
FTUS45 KREV 221100
TAFCXP
TAF
KCXP 221131Z 2212/2312 VRB04KT P6SM SCT200
     FM222000 20008KT 5SM HZ SCT200
     FM222200 29008KT 2SM FU HZ FEW100 SCT200
     FM230300 VRB04KT 5SM HZ SCT200
     FM230600 VRB03KT P6SM SCT200=

USA.gov is the U.S. government's official web portal to all federal, state and local government web resources and services.